OCN9PG EDDF-LEMH
Flight info
| Callsign | OCN9PG |
|---|---|
| Flight time | N/A |
| Altitude | 35000 |
| Route | ANEKI2L ANEKI Y163 HERBI Y164 MOPAN DCT LUTIX DCT BENOT DCT NEMOS DCT GEVEA/N0443F370 DCT INCUS DCT BALSI DCT RETNO DCT TUPOX DCT MTG DCT DIVKO DCT VATIR DCT PIVUS N852 VERSO L16 SARGO |
| Aircraft | A320/M-SDE3FGHIRWY/LB1 |
Departure
| Time | N/A |
|---|---|
| Airport | Frankfurt Main Airport (EDDF) |
Arrival
| Time | 2026-05-08 21:17 |
|---|---|
| Airport | Menorca Airport (LEMH) |
| Time | Latitude | Longitude | Altitude | Speed | Heading |
|---|---|---|---|---|---|
| 2026-05-08 20:23 | 44.83499 | 5.76157 | 37081 ft | 433 kts | 195° |
| 2026-05-08 20:23 | 44.80554 | 5.75252 | 37083 ft | 433 kts | 195° |
| 2026-05-08 20:24 | 44.74662 | 5.73458 | 37084 ft | 433 kts | 195° |
| 2026-05-08 20:24 | 44.68855 | 5.71696 | 37083 ft | 433 kts | 195° |
| 2026-05-08 20:25 | 44.62962 | 5.69898 | 37096 ft | 433 kts | 195° |
| 2026-05-08 20:25 | 44.57077 | 5.68111 | 37092 ft | 433 kts | 195° |
| 2026-05-08 20:26 | 44.52151 | 5.66613 | 37100 ft | 432 kts | 195° |
| 2026-05-08 20:26 | 44.46273 | 5.64835 | 37091 ft | 432 kts | 195° |
| 2026-05-08 20:27 | 44.40401 | 5.63072 | 37088 ft | 431 kts | 195° |
| 2026-05-08 20:27 | 44.34730 | 5.60552 | 37087 ft | 427 kts | 204° |
| 2026-05-08 20:28 | 44.29203 | 5.57512 | 37085 ft | 427 kts | 204° |
| 2026-05-08 20:28 | 44.23677 | 5.54490 | 37088 ft | 426 kts | 204° |
| 2026-05-08 20:29 | 44.18170 | 5.51484 | 37093 ft | 425 kts | 204° |
| 2026-05-08 20:29 | 44.12654 | 5.48475 | 37090 ft | 425 kts | 204° |
| 2026-05-08 20:30 | 44.07151 | 5.45480 | 37081 ft | 424 kts | 204° |
| 2026-05-08 20:30 | 44.01657 | 5.42505 | 37084 ft | 424 kts | 204° |
| 2026-05-08 20:31 | 43.96162 | 5.39534 | 37081 ft | 423 kts | 204° |
| 2026-05-08 20:31 | 43.90678 | 5.36565 | 37082 ft | 423 kts | 204° |
| 2026-05-08 20:32 | 43.85194 | 5.33595 | 37076 ft | 423 kts | 204° |
| 2026-05-08 20:32 | 43.79754 | 5.30658 | 37087 ft | 422 kts | 203° |
| 2026-05-08 20:33 | 43.74274 | 5.27713 | 37088 ft | 422 kts | 203° |
| 2026-05-08 20:33 | 43.68798 | 5.24773 | 37080 ft | 422 kts | 204° |
| 2026-05-08 20:34 | 43.63364 | 5.21858 | 37087 ft | 422 kts | 204° |
| 2026-05-08 20:35 | 43.55160 | 5.17475 | 37084 ft | 422 kts | 204° |
| 2026-05-08 20:35 | 43.49689 | 5.14554 | 37082 ft | 421 kts | 204° |
| 2026-05-08 20:36 | 43.44224 | 5.11637 | 37081 ft | 421 kts | 204° |
| 2026-05-08 20:36 | 43.38802 | 5.08615 | 37080 ft | 419 kts | 210° |
| 2026-05-08 20:37 | 43.33928 | 5.04276 | 37079 ft | 418 kts | 216° |
| 2026-05-08 20:37 | 43.29146 | 4.99746 | 37060 ft | 418 kts | 217° |
| 2026-05-08 20:38 | 43.24361 | 4.95231 | 37078 ft | 418 kts | 217° |
| 2026-05-08 20:38 | 43.19559 | 4.90724 | 37080 ft | 418 kts | 217° |
| 2026-05-08 20:39 | 43.14757 | 4.86230 | 37079 ft | 418 kts | 217° |
| 2026-05-08 20:39 | 43.09954 | 4.81739 | 37075 ft | 418 kts | 217° |
| 2026-05-08 20:40 | 43.05125 | 4.77320 | 37084 ft | 419 kts | 213° |
| 2026-05-08 20:40 | 43.00032 | 4.73442 | 37082 ft | 419 kts | 212° |
| 2026-05-08 20:41 | 42.94941 | 4.69577 | 37082 ft | 419 kts | 212° |
| 2026-05-08 20:41 | 42.89842 | 4.65725 | 37072 ft | 419 kts | 213° |
| 2026-05-08 20:42 | 42.84748 | 4.61880 | 37074 ft | 419 kts | 213° |
| 2026-05-08 20:42 | 42.79651 | 4.58031 | 37078 ft | 418 kts | 213° |
| 2026-05-08 20:43 | 42.74561 | 4.54202 | 37089 ft | 418 kts | 213° |
| 2026-05-08 20:43 | 42.69468 | 4.50375 | 37086 ft | 418 kts | 213° |
| 2026-05-08 20:44 | 42.64380 | 4.46560 | 37089 ft | 418 kts | 213° |
| 2026-05-08 20:44 | 42.59290 | 4.42753 | 37087 ft | 418 kts | 213° |
| 2026-05-08 20:45 | 42.54234 | 4.38988 | 37077 ft | 417 kts | 213° |
| 2026-05-08 20:45 | 42.49146 | 4.35210 | 37071 ft | 416 kts | 213° |
| 2026-05-08 20:46 | 42.44037 | 4.31425 | 37075 ft | 415 kts | 213° |
| 2026-05-08 20:46 | 42.39014 | 4.27673 | 37082 ft | 415 kts | 213° |
| 2026-05-08 20:47 | 42.33955 | 4.23917 | 37080 ft | 415 kts | 213° |
| 2026-05-08 20:47 | 42.28898 | 4.20176 | 37068 ft | 414 kts | 214° |
| 2026-05-08 20:48 | 42.23850 | 4.16455 | 37081 ft | 413 kts | 214° |
| 2026-05-08 20:48 | 42.18815 | 4.12754 | 37085 ft | 412 kts | 214° |
| 2026-05-08 20:49 | 42.13795 | 4.09057 | 37082 ft | 411 kts | 214° |
| 2026-05-08 20:49 | 42.08781 | 4.05378 | 37078 ft | 410 kts | 214° |
| 2026-05-08 20:50 | 42.03784 | 4.01708 | 37081 ft | 409 kts | 214° |
| 2026-05-08 20:50 | 41.98798 | 3.98046 | 37080 ft | 408 kts | 214° |
| 2026-05-08 20:51 | 41.93806 | 3.94433 | 37082 ft | 410 kts | 211° |
| 2026-05-08 20:51 | 41.88224 | 3.92373 | 37068 ft | 422 kts | 198° |
| 2026-05-08 20:52 | 41.82442 | 3.91055 | 37080 ft | 421 kts | 198° |
| 2026-05-08 20:52 | 41.76677 | 3.89729 | 37083 ft | 420 kts | 198° |
| 2026-05-08 20:53 | 41.70924 | 3.88400 | 37054 ft | 419 kts | 198° |
| 2026-05-08 20:53 | 41.65184 | 3.87080 | 37076 ft | 419 kts | 199° |
| 2026-05-08 20:54 | 41.59443 | 3.85761 | 37072 ft | 418 kts | 199° |
| 2026-05-08 20:54 | 41.53709 | 3.84448 | 37075 ft | 418 kts | 199° |
| 2026-05-08 20:55 | 41.47981 | 3.83133 | 37042 ft | 418 kts | 200° |
| 2026-05-08 20:55 | 41.42258 | 3.81818 | 37062 ft | 417 kts | 200° |
| 2026-05-08 20:56 | 41.36536 | 3.80508 | 37074 ft | 417 kts | 200° |
| 2026-05-08 20:56 | 41.33683 | 3.79861 | 36913 ft | 416 kts | 200° |
| 2026-05-08 20:56 | 41.30832 | 3.79216 | 36648 ft | 415 kts | 200° |
| 2026-05-08 20:56 | 41.27987 | 3.78573 | 36368 ft | 415 kts | 200° |
| 2026-05-08 20:57 | 41.25138 | 3.77925 | 36112 ft | 416 kts | 201° |
| 2026-05-08 20:57 | 41.22330 | 3.77286 | 35869 ft | 416 kts | 201° |
| 2026-05-08 20:57 | 41.19428 | 3.76626 | 35612 ft | 417 kts | 201° |
| 2026-05-08 20:57 | 41.16557 | 3.76191 | 35368 ft | 429 kts | 193° |
| 2026-05-08 20:58 | 41.13522 | 3.76434 | 35123 ft | 447 kts | 182° |
| 2026-05-08 20:58 | 41.10447 | 3.77406 | 34876 ft | 459 kts | 176° |
| 2026-05-08 20:58 | 41.07360 | 3.78545 | 34441 ft | 461 kts | 176° |
| 2026-05-08 20:58 | 41.04240 | 3.79684 | 33219 ft | 469 kts | 176° |
| 2026-05-08 20:59 | 41.01076 | 3.80830 | 32214 ft | 474 kts | 175° |
| 2026-05-08 20:59 | 40.97887 | 3.81984 | 31219 ft | 478 kts | 174° |
| 2026-05-08 20:59 | 40.94657 | 3.83147 | 30114 ft | 484 kts | 173° |
| 2026-05-08 20:59 | 40.91384 | 3.84321 | 28826 ft | 490 kts | 172° |
| 2026-05-08 21:00 | 40.88093 | 3.85508 | 27743 ft | 491 kts | 172° |
| 2026-05-08 21:00 | 40.84809 | 3.86703 | 26802 ft | 488 kts | 171° |
| 2026-05-08 21:00 | 40.81555 | 3.87890 | 25319 ft | 482 kts | 171° |
| 2026-05-08 21:00 | 40.78316 | 3.89062 | 23615 ft | 482 kts | 171° |
| 2026-05-08 21:01 | 40.75086 | 3.90222 | 22750 ft | 476 kts | 171° |
| 2026-05-08 21:01 | 40.71913 | 3.91364 | 21871 ft | 471 kts | 171° |
| 2026-05-08 21:01 | 40.68761 | 3.92491 | 21012 ft | 466 kts | 170° |
| 2026-05-08 21:01 | 40.67348 | 3.92991 | 20656 ft | 464 kts | 171° |
| 2026-05-08 21:02 | 40.64246 | 3.94090 | 19789 ft | 461 kts | 170° |
| 2026-05-08 21:02 | 40.61161 | 3.95188 | 19045 ft | 456 kts | 171° |
| 2026-05-08 21:02 | 40.58340 | 3.95803 | 18820 ft | 432 kts | 182° |
| 2026-05-08 21:02 | 40.55355 | 3.95782 | 18731 ft | 410 kts | 186° |
| 2026-05-08 21:03 | 40.52509 | 3.95714 | 18648 ft | 410 kts | 186° |
| 2026-05-08 21:03 | 40.49650 | 3.95636 | 18562 ft | 411 kts | 187° |
| 2026-05-08 21:03 | 40.46796 | 3.95547 | 18481 ft | 411 kts | 187° |
| 2026-05-08 21:03 | 40.43938 | 3.95452 | 18397 ft | 410 kts | 187° |
| 2026-05-08 21:04 | 40.41087 | 3.95352 | 18305 ft | 410 kts | 187° |
| 2026-05-08 21:04 | 40.38236 | 3.95254 | 18190 ft | 410 kts | 187° |
| 2026-05-08 21:04 | 40.35386 | 3.95160 | 17855 ft | 409 kts | 186° |
| 2026-05-08 21:04 | 40.32545 | 3.95074 | 17140 ft | 407 kts | 186° |
| 2026-05-08 21:05 | 40.29800 | 3.94993 | 16480 ft | 404 kts | 186° |
| 2026-05-08 21:05 | 40.27001 | 3.94910 | 15821 ft | 401 kts | 186° |
| 2026-05-08 21:05 | 40.24216 | 3.94827 | 15174 ft | 399 kts | 186° |
| 2026-05-08 21:05 | 40.21452 | 3.94742 | 14538 ft | 396 kts | 186° |
| 2026-05-08 21:06 | 40.18739 | 3.94658 | 13938 ft | 393 kts | 185° |
| 2026-05-08 21:06 | 40.15978 | 3.94573 | 13276 ft | 390 kts | 185° |
| 2026-05-08 21:06 | 40.13285 | 3.94490 | 12688 ft | 385 kts | 185° |
| 2026-05-08 21:06 | 40.10663 | 3.94410 | 12104 ft | 380 kts | 185° |
| 2026-05-08 21:07 | 40.08032 | 3.94329 | 11523 ft | 376 kts | 185° |
| 2026-05-08 21:07 | 40.05464 | 3.94250 | 11341 ft | 360 kts | 185° |
| 2026-05-08 21:07 | 40.03017 | 3.94177 | 11218 ft | 344 kts | 185° |
| 2026-05-08 21:07 | 40.00673 | 3.94108 | 11098 ft | 330 kts | 185° |
| 2026-05-08 21:08 | 39.98448 | 3.94040 | 10967 ft | 308 kts | 185° |
| 2026-05-08 21:08 | 39.96377 | 3.93979 | 10692 ft | 291 kts | 185° |
| 2026-05-08 21:08 | 39.94381 | 3.93914 | 10350 ft | 285 kts | 185° |
| 2026-05-08 21:08 | 39.92403 | 3.93844 | 10118 ft | 284 kts | 185° |
| 2026-05-08 21:09 | 39.90440 | 3.93715 | 9939 ft | 281 kts | 187° |
| 2026-05-08 21:09 | 39.88488 | 3.93545 | 9814 ft | 281 kts | 188° |
| 2026-05-08 21:09 | 39.86532 | 3.93402 | 9682 ft | 282 kts | 184° |
| 2026-05-08 21:09 | 39.84571 | 3.93505 | 9547 ft | 283 kts | 178° |
| 2026-05-08 21:10 | 39.82608 | 3.93837 | 9118 ft | 286 kts | 173° |
| 2026-05-08 21:10 | 39.80660 | 3.94405 | 8671 ft | 287 kts | 167° |
| 2026-05-08 21:10 | 39.78762 | 3.95203 | 8224 ft | 289 kts | 162° |
| 2026-05-08 21:10 | 39.77535 | 3.95864 | 8023 ft | 287 kts | 158° |
| 2026-05-08 21:11 | 39.75757 | 3.97027 | 7657 ft | 286 kts | 153° |
| 2026-05-08 21:11 | 39.74069 | 3.98392 | 7274 ft | 286 kts | 147° |
| 2026-05-08 21:11 | 39.72491 | 3.99946 | 6895 ft | 285 kts | 142° |
| 2026-05-08 21:11 | 39.71029 | 4.01679 | 6500 ft | 285 kts | 137° |
| 2026-05-08 21:12 | 39.69693 | 4.03585 | 6126 ft | 284 kts | 132° |
| 2026-05-08 21:12 | 39.68515 | 4.05605 | 5600 ft | 278 kts | 127° |
| 2026-05-08 21:12 | 39.67496 | 4.07714 | 5013 ft | 274 kts | 121° |
| 2026-05-08 21:12 | 39.66638 | 4.09897 | 4423 ft | 269 kts | 115° |
| 2026-05-08 21:13 | 39.65946 | 4.12127 | 3868 ft | 265 kts | 110° |
| 2026-05-08 21:13 | 39.65748 | 4.14454 | 3645 ft | 259 kts | 82° |
| 2026-05-08 21:13 | 39.66440 | 4.16544 | 3499 ft | 251 kts | 52° |
| 2026-05-08 21:13 | 39.67776 | 4.17913 | 3348 ft | 243 kts | 25° |
| 2026-05-08 21:14 | 39.69391 | 4.18425 | 3205 ft | 236 kts | 12° |
| 2026-05-08 21:14 | 39.70998 | 4.18742 | 3073 ft | 233 kts | 11° |
| 2026-05-08 21:14 | 39.72592 | 4.19062 | 2808 ft | 231 kts | 11° |
| 2026-05-08 21:14 | 39.74181 | 4.19387 | 2508 ft | 231 kts | 11° |
| 2026-05-08 21:15 | 39.75758 | 4.19710 | 2186 ft | 226 kts | 11° |
| 2026-05-08 21:15 | 39.77271 | 4.20019 | 1904 ft | 214 kts | 11° |
| 2026-05-08 21:15 | 39.78671 | 4.20305 | 1639 ft | 199 kts | 11° |
| 2026-05-08 21:15 | 39.79984 | 4.20574 | 1391 ft | 181 kts | 12° |
| 2026-05-08 21:16 | 39.81161 | 4.20815 | 1102 ft | 164 kts | 12° |
| 2026-05-08 21:16 | 39.82234 | 4.21038 | 893 ft | 149 kts | 12° |
| 2026-05-08 21:16 | 39.83249 | 4.21242 | 648 ft | 148 kts | 13° |
| 2026-05-08 21:16 | 39.84267 | 4.21447 | 464 ft | 147 kts | 11° |
| 2026-05-08 21:17 | 39.85238 | 4.21651 | 315 ft | 136 kts | 12° |
| 2026-05-08 21:17 | 39.86072 | 4.21830 | 298 ft | 102 kts | 9° |
| 2026-05-08 21:17 | 39.86598 | 4.21934 | 298 ft | 50 kts | 9° |
| 2026-05-08 21:17 | 39.86795 | 4.22039 | 303 ft | 23 kts | 36° |
| 2026-05-08 21:18 | 39.86916 | 4.22149 | 301 ft | 17 kts | 45° |
| 2026-05-08 21:18 | 39.86924 | 4.22298 | 297 ft | 17 kts | 100° |
| 2026-05-08 21:18 | 39.86887 | 4.22397 | 299 ft | 12 kts | 156° |
| 2026-05-08 21:18 | 39.86811 | 4.22389 | 295 ft | 10 kts | 188° |
| 2026-05-08 21:19 | 39.86745 | 4.22376 | 295 ft | 9 kts | 189° |
| 2026-05-08 21:19 | 39.86689 | 4.22365 | 295 ft | 8 kts | 189° |
| 2026-05-08 21:19 | 39.86641 | 4.22355 | 296 ft | 6 kts | 189° |
| 2026-05-08 21:19 | 39.86602 | 4.22346 | 295 ft | 5 kts | 189° |
| 2026-05-08 21:20 | 39.86557 | 4.22337 | 295 ft | 9 kts | 187° |
| 2026-05-08 21:20 | 39.86531 | 4.22390 | 295 ft | 4 kts | 100° |
| 2026-05-08 21:20 | 39.86528 | 4.22417 | 297 ft | 2 kts | 98° |
| 2026-05-08 21:20 | 39.86528 | 4.22419 | 297 ft | 0 kts | 98° |